sim
Sign-in with your pilot id or email,
or register
Callsign
Passwort

Schedule Details

Flight Number: DLH2135 (2)
Departure: Munster Osnabruck International -?Airport (EDDG) at 07:55
Arrival: Munich Airport (EDDM) at 09:00
Route: Lufthansa Passenger Schedule. Enter filed route here before submitting Pirep.

Weather Information
Getting current METAR information for EDDG 190920Z VRB05KT CAVOK 19/06 Q1020 NOSIG
Getting current METAR information for EDDM 190920Z 08007KT 040V110 CAVOK 16/09 Q1020 NOSIG

Schedule Frequency

Route Map